Time;durP1;ratioP1;P1;durP2;ratioP2;P2;SDS_P1;SDS_P2;PMS_P1;PMS_P2;Temp;Humidity;BMP_temperature;BMP_pressure;BME280_temperature;BME280_humidity;BME280_pressure;Samples;Min_cycle;Max_cycle;Signal;HPM_P1;HPM_P2
2022/11/01 00:02:10;;;;;;;19.70;11.03;;;14.50;99.90;;;14.99;nan;100502.22;5031352;28;20646;-65
2022/11/01 00:04:37;;;;;;;16.00;8.70;;;14.50;99.90;;;;;;5032212;28;20671;-64
2022/11/01 00:07:04;;;;;;;18.90;8.90;;;14.50;99.90;;;;;;5042552;28;20625;-64
2022/11/01 00:09:31;;;;;;;16.50;10.20;;;14.60;99.90;;;;;;5030125;28;20633;-64
2022/11/01 00:11:58;;;;;;;16.97;9.17;;;14.60;99.90;;;15.03;nan;100503.63;5031003;28;20756;-65
2022/11/01 00:14:25;;;;;;;17.43;8.53;;;14.70;99.90;;;15.09;nan;100512.72;5030480;28;20623;-66
2022/11/01 00:16:52;;;;;;;13.37;6.97;;;14.60;99.90;;;15.09;nan;100504.84;5029713;28;21024;-64
2022/11/01 00:19:19;;;;;;;11.67;7.47;;;14.60;99.90;;;15.00;nan;100509.13;5029822;28;20652;-67
2022/11/01 00:21:46;;;;;;;8.33;5.77;;;14.70;99.90;;;14.88;nan;100510.28;5029201;28;20670;-64
2022/11/01 00:24:13;;;;;;;18.57;8.07;;;14.60;99.90;;;14.86;nan;100509.59;5029984;28;20627;-63
2022/11/01 00:26:40;;;;;;;10.10;5.63;;;14.60;99.90;;;14.83;nan;100506.41;5029816;28;21196;-64
2022/11/01 00:29:08;;;;;;;9.00;6.20;;;14.60;99.90;;;14.91;nan;100506.50;5030407;28;20660;-63
2022/11/01 00:31:34;;;;;;;9.13;4.40;;;14.60;99.90;;;14.94;nan;100509.72;5029639;28;20628;-64
2022/11/01 00:34:04;;;;;;;13.93;7.60;;;14.50;99.90;;;14.72;nan;100504.75;5025624;28;20636;-65
2022/11/01 00:36:32;;;;;;;11.00;5.40;;;14.50;99.90;;;14.82;nan;100502.97;5027919;28;20633;-63
2022/11/01 00:38:59;;;;;;;8.43;5.27;;;14.50;99.90;;;14.79;nan;100500.59;5029365;28;21248;-64
2022/11/01 00:41:26;;;;;;;15.07;8.40;;;14.50;99.90;;;14.84;nan;100487.88;5030978;28;20650;-65
2022/11/01 00:43:53;;;;;;;11.27;6.00;;;14.50;99.90;;;14.90;nan;100495.19;5029596;28;20639;-62
2022/11/01 00:46:20;;;;;;;10.30;7.00;;;14.50;99.90;;;14.83;nan;100498.50;5017253;28;20671;-65
2022/11/01 00:48:47;;;;;;;11.63;6.27;;;14.50;99.90;;;14.85;nan;100489.53;5027975;28;21364;-65
2022/11/01 00:51:14;;;;;;;8.30;5.80;;;14.50;99.90;;;14.79;nan;100479.59;5029046;28;20731;-65
2022/11/01 00:53:41;;;;;;;8.57;5.10;;;14.50;99.90;;;14.77;nan;100476.28;5020733;28;21214;-65
2022/11/01 00:56:08;;;;;;;15.20;6.67;;;14.50;99.90;;;14.86;nan;100480.69;5030030;28;20640;-64
2022/11/01 00:58:35;;;;;;;9.20;6.10;;;14.50;99.90;;;14.87;nan;100487.59;5028627;28;20688;-63
2022/11/01 01:01:02;;;;;;;12.53;7.20;;;14.50;99.90;;;14.90;nan;100478.59;5029085;28;20648;-64
2022/11/01 01:03:29;;;;;;;8.33;5.20;;;14.50;99.90;;;14.93;nan;100473.06;5029139;28;20615;-65
2022/11/01 01:05:56;;;;;;;9.27;5.93;;;14.60;99.90;;;14.88;nan;100468.25;5029407;28;20657;-64
2022/11/01 01:08:25;;;;;;;11.17;6.53;;;14.50;99.90;;;15.08;nan;100458.50;5028268;28;21212;-64
2022/11/01 01:10:52;;;;;;;9.87;6.43;;;14.60;99.90;;;14.96;nan;100452.59;5027815;28;20617;-65
2022/11/01 01:13:19;;;;;;;12.70;6.90;;;14.60;99.90;;;14.91;nan;100462.69;5028908;28;21200;-64
2022/11/01 01:15:47;;;;;;;11.80;6.77;;;14.60;99.90;;;14.99;nan;100470.69;5025137;28;20613;-64
2022/11/01 01:18:15;;;;;;;8.07;5.07;;;14.60;99.90;;;14.99;nan;100470.69;5015778;28;20654;-63
2022/11/01 01:20:42;;;;;;;18.37;7.07;;;14.60;99.90;;;14.99;nan;100452.28;5032170;28;20597;-63
2022/11/01 01:23:09;;;;;;;9.47;5.60;;;14.60;99.90;;;15.00;nan;100461.84;5044655;28;20643;-65
2022/11/01 01:25:40;;;;;;;12.80;5.50;;;14.60;99.90;;;15.04;nan;100452.69;5032901;28;21085;-64
2022/11/01 01:28:08;;;;;;;11.60;6.30;;;14.60;99.90;;;15.03;nan;100468.63;5029839;28;20608;-64
2022/11/01 01:30:40;;;;;;;2.43;1.93;;;14.60;99.90;;;14.98;nan;100461.16;5032353;28;20648;-66
2022/11/01 01:33:08;;;;;;;12.30;5.77;;;14.70;99.90;;;15.08;nan;100459.31;5032747;28;20605;-64
2022/11/01 01:35:37;;;;;;;16.53;6.90;;;14.70;99.90;;;15.15;nan;100463.06;5032233;28;21100;-66
2022/11/01 01:38:05;;;;;;;11.00;5.50;;;14.70;99.90;;;15.10;nan;100465.25;5031425;28;20645;-64
2022/11/01 01:40:33;;;;;;;7.70;4.83;;;14.80;99.90;;;15.20;nan;100463.47;5032338;28;20649;-64
2022/11/01 01:43:00;;;;;;;8.80;6.17;;;14.80;99.90;;;15.24;nan;100464.81;5032878;28;21200;-64
2022/11/01 01:45:37;;;;;;;3.97;3.30;;;14.80;99.90;;;15.16;nan;100475.19;5030203;28;20702;-65
2022/11/01 01:48:17;;;;;;;10.33;5.93;;;14.80;99.90;;;15.19;nan;100466.22;5029164;28;20618;-66
2022/11/01 01:50:59;;;;;;;12.57;5.90;;;14.80;99.90;;;15.18;nan;100470.63;5031376;28;20616;-65
2022/11/01 01:53:34;;;;;;;4.70;2.47;;;14.90;99.90;;;15.16;nan;100463.88;5031861;28;20643;-64
2022/11/01 01:56:06;;;;;;;5.30;2.70;;;14.90;99.90;;;15.11;nan;100464.31;5047767;28;20592;-65
2022/11/01 01:58:46;;;;;;;9.37;4.67;;;14.80;99.90;;;15.11;nan;100463.47;5033936;28;21045;-64
2022/11/01 02:01:13;;;;;;;10.23;3.40;;;14.80;99.90;;;15.12;nan;100463.31;5032434;28;20639;-64
2022/11/01 02:03:41;;;;;;;9.13;5.70;;;14.80;99.90;;;15.22;nan;100455.41;5031817;28;20993;-64
2022/11/01 02:06:14;;;;;;;13.40;5.23;;;14.80;99.90;;;15.15;nan;100452.53;5030885;28;20671;-65
2022/11/01 02:08:49;;;;;;;7.03;4.60;;;14.80;99.90;;;15.10;nan;100456.56;5032430;28;20655;-64
2022/11/01 02:11:17;;;;;;;12.87;5.27;;;14.80;99.90;;;15.21;nan;100454.59;5027017;28;20647;-64
2022/11/01 02:13:44;;;;;;;7.57;4.20;;;14.80;99.90;;;15.22;nan;100461.50;5066686;28;20616;-65
2022/11/01 02:16:36;;;;;;;13.33;5.07;;;14.90;99.90;;;15.15;nan;100460.41;5044442;28;20641;-64
2022/11/01 02:19:15;;;;;;;6.67;3.97;;;14.80;99.90;;;15.34;nan;100459.50;5031089;28;20649;-64
2022/11/01 02:22:03;;;;;;;17.90;6.07;;;14.90;99.90;;;15.30;nan;100456.34;5029192;28;20633;-62
2022/11/01 02:25:18;;;;;;;9.43;5.07;;;14.90;99.90;;;15.24;nan;100464.00;5028049;28;20639;-64
2022/11/01 02:28:00;;;;;;;9.63;5.13;;;14.90;99.90;;;15.31;nan;100460.63;5029585;28;20698;-64
2022/11/01 02:31:15;;;;;;;9.00;4.60;;;14.90;99.90;;;15.15;nan;100464.84;5031831;28;20721;-65
2022/11/01 02:33:53;;;;;;;8.60;4.30;;;14.90;99.90;;;;;;5024419;28;20621;-63
2022/11/01 02:36:46;;;;;;;5.10;3.40;;;14.90;99.90;;;15.09;nan;100471.50;5020895;28;20613;-63
2022/11/01 02:39:22;;;;;;;6.23;3.90;;;14.80;99.90;;;15.14;nan;100474.53;5030138;28;20656;-64
2022/11/01 02:42:10;;;;;;;12.47;5.67;;;14.80;99.90;;;15.17;nan;100489.19;5029953;28;21155;-65
2022/11/01 02:44:43;;;;;;;9.47;4.40;;;14.80;99.90;;;15.21;nan;100501.06;5028535;28;20617;-65
2022/11/01 02:47:12;;;;;;;9.40;6.00;;;14.90;99.90;;;15.19;nan;100527.50;5029390;28;21191;-67
2022/11/01 02:49:47;;;;;;;10.93;6.63;;;14.80;99.90;;;15.27;nan;100530.22;5029552;28;20655;-65
2022/11/01 02:52:20;;;;;;;12.00;6.30;;;14.90;99.90;;;15.43;nan;100522.63;5038394;28;20629;-64
2022/11/01 02:54:58;;;;;;;12.40;5.93;;;15.00;99.90;;;15.39;nan;100529.09;5035117;28;20640;-67
2022/11/01 02:57:38;;;;;;;7.80;4.30;;;14.90;99.90;;;15.05;nan;100527.94;5030828;28;21013;-65
2022/11/01 03:00:28;;;;;;;5.70;4.77;;;14.80;99.90;;;15.03;nan;100529.88;5040987;28;21244;-65
2022/11/01 03:03:15;;;;;;;9.00;4.23;;;14.80;99.90;;;14.92;nan;100534.47;5030841;28;20624;-66
2022/11/01 03:06:01;;;;;;;15.00;3.57;;;14.70;99.90;;;14.87;nan;100542.75;5029527;28;20675;-65
2022/11/01 03:08:45;;;;;;;8.47;3.47;;;14.60;99.90;;;14.73;nan;100543.19;5029494;28;20957;-64
2022/11/01 03:11:20;;;;;;;7.20;4.80;;;14.50;99.90;;;14.72;nan;100531.84;5027298;28;20670;-65
2022/11/01 03:14:08;;;;;;;13.43;7.00;;;14.50;99.90;;;14.76;nan;100522.72;5030357;28;21211;-65
2022/11/01 03:16:47;;;;;;;8.87;6.07;;;14.40;99.90;;;14.78;nan;100514.69;5037496;28;20617;-67
2022/11/01 03:19:33;;;;;;;9.67;5.37;;;14.50;99.90;;;14.69;nan;100511.09;5030033;28;21249;-64
2022/11/01 03:22:32;;;;;;;9.80;5.60;;;14.40;99.90;;;14.93;nan;100513.28;5027198;28;21211;-63
2022/11/01 03:28:02;;;;;;;18.27;6.40;;;14.50;99.90;;;14.96;nan;100514.81;5024116;28;20632;-65
2022/11/01 03:30:32;;;;;;;11.10;5.30;;;14.60;99.90;;;14.92;nan;100524.78;5029363;28;20645;-65
2022/11/01 03:32:59;;;;;;;13.43;6.40;;;14.60;99.90;;;15.02;nan;100528.22;5027171;28;20641;-65
2022/11/01 03:35:36;;;;;;;6.30;4.50;;;14.60;99.90;;;14.90;nan;100534.59;5029006;28;20655;-65
2022/11/01 03:38:08;;;;;;;14.87;5.67;;;14.60;99.90;;;14.97;nan;100529.63;5033396;28;20634;-64
2022/11/01 03:40:41;;;;;;;12.03;4.50;;;14.50;99.90;;;14.97;nan;100530.44;5028217;28;20668;-64
2022/11/01 03:43:12;;;;;;;11.37;7.07;;;14.60;99.90;;;15.04;nan;100534.16;5029050;28;20621;-64
2022/11/01 03:45:40;;;;;;;11.33;6.73;;;14.60;99.90;;;15.10;nan;100528.34;5028030;28;20667;-64
2022/11/01 03:48:07;;;;;;;8.70;4.83;;;14.60;99.90;;;15.03;nan;100535.16;5025406;28;20630;-65
2022/11/01 03:50:34;;;;;;;9.90;5.00;;;14.60;99.90;;;15.02;nan;100533.47;5029644;28;20665;-64
2022/11/01 03:53:01;;;;;;;9.97;6.77;;;14.60;99.90;;;15.03;nan;100529.88;5024232;28;20633;-64
2022/11/01 03:55:27;;;;;;;13.37;6.37;;;14.60;99.90;;;15.05;nan;100535.84;5030155;28;20623;-65
2022/11/01 03:57:57;;;;;;;12.90;7.10;;;14.60;99.90;;;15.00;nan;100545.91;5029957;28;20672;-65
2022/11/01 04:00:30;;;;;;;13.97;6.87;;;14.60;99.90;;;15.14;nan;100536.78;5030528;28;20709;-64
2022/11/01 04:02:58;;;;;;;10.60;6.90;;;14.60;99.90;;;14.95;nan;100545.50;5030602;28;20632;-64
2022/11/01 04:05:28;;;;;;;11.57;6.10;;;14.70;99.90;;;15.05;nan;100548.97;5029409;28;20661;-64
2022/11/01 04:07:55;;;;;;;11.17;4.20;;;14.70;99.90;;;14.91;nan;100540.66;5024651;28;20643;-64
2022/11/01 04:10:25;;;;;;;10.47;6.33;;;14.60;99.90;;;14.88;nan;100552.31;5028690;28;20648;-65
2022/11/01 04:12:52;;;;;;;6.80;4.00;;;14.60;99.90;;;14.93;nan;100557.94;5029706;28;20624;-64
2022/11/01 04:21:11;;;;;;;11.50;5.90;;;14.60;99.90;;;14.98;nan;100568.88;5030741;28;20617;-65
2022/11/01 04:23:38;;;;;;;11.37;7.20;;;14.60;99.90;;;15.09;nan;100573.16;5028334;28;21215;-65
2022/11/01 04:26:09;;;;;;;10.37;7.23;;;14.60;99.90;;;15.10;nan;100583.53;5029199;28;20647;-65
2022/11/01 04:28:36;;;;;;;14.33;8.80;;;14.60;99.90;;;15.19;nan;100590.56;5030360;28;20667;-65
2022/11/01 04:31:04;;;;;;;15.30;7.80;;;14.60;99.90;;;15.25;nan;100590.00;5049143;28;20630;-65
2022/11/01 04:33:31;;;;;;;11.47;6.77;;;14.70;99.90;;;15.28;nan;100584.47;5035151;28;20625;-64
2022/11/01 04:36:04;;;;;;;12.07;6.73;;;14.80;99.90;;;15.24;nan;100583.09;5029601;28;20644;-64
2022/11/01 04:38:31;;;;;;;10.07;6.67;;;14.80;99.90;;;15.28;nan;100563.44;5021094;28;20664;-64
2022/11/01 04:40:58;;;;;;;12.07;6.77;;;14.80;99.90;;;15.24;nan;100553.34;5028024;28;20605;-64
2022/11/01 04:43:25;;;;;;;10.70;6.40;;;14.80;99.90;;;15.43;nan;100554.16;5029438;28;21019;-65
2022/11/01 04:45:56;;;;;;;10.13;5.90;;;14.90;99.90;;;15.34;nan;100554.97;5030432;28;20664;-63
2022/11/01 04:48:24;;;;;;;10.97;5.57;;;14.80;99.90;;;15.35;nan;100561.88;5028702;28;20637;-64
2022/11/01 04:50:52;;;;;;;8.90;5.37;;;14.90;99.90;;;15.32;nan;100562.19;5030329;28;20607;-64
2022/11/01 04:53:18;;;;;;;12.50;6.43;;;14.80;99.90;;;15.35;nan;100564.50;5032725;28;20631;-64
2022/11/01 04:55:45;;;;;;;11.30;5.87;;;14.90;99.90;;;15.09;nan;100560.00;5015590;28;20987;-65
2022/11/01 04:58:13;;;;;;;14.20;6.90;;;14.80;99.90;;;15.20;nan;100549.34;5017816;28;21000;-64
2022/11/01 05:00:42;;;;;;;10.87;6.43;;;14.80;99.90;;;15.18;nan;100559.97;5034107;28;20601;-65
2022/11/01 05:03:10;;;;;;;7.27;5.10;;;14.80;99.90;;;15.28;nan;100576.59;5033654;28;20840;-64
2022/11/01 05:05:38;;;;;;;14.00;5.63;;;14.80;99.90;;;15.20;nan;100589.63;5033302;28;21111;-63
2022/11/01 05:08:08;;;;;;;10.13;5.50;;;14.90;99.90;;;15.14;nan;100597.22;5032604;28;20633;-64
2022/11/01 05:10:45;;;;;;;12.63;5.90;;;14.80;99.90;;;15.19;nan;100603.72;5032208;28;20649;-64
2022/11/01 05:13:12;;;;;;;11.90;6.20;;;14.80;99.90;;;15.20;nan;100609.81;5030451;28;20990;-64
2022/11/01 05:15:39;;;;;;;13.43;6.50;;;14.80;99.90;;;15.21;nan;100606.19;5033739;28;20639;-64
2022/11/01 05:18:25;;;;;;;15.80;7.00;;;14.80;99.90;;;15.21;nan;100607.03;5032032;28;20609;-64
2022/11/01 05:20:52;;;;;;;13.53;6.60;;;14.90;99.90;;;15.31;nan;100613.09;5032493;28;20617;-66
2022/11/01 05:23:18;;;;;;;13.33;6.40;;;14.90;99.90;;;15.40;nan;100604.38;5033315;28;20637;-64
2022/11/01 05:25:45;;;;;;;16.30;5.77;;;14.90;99.90;;;15.27;nan;100618.75;5034216;28;20612;-64
2022/11/01 05:28:13;;;;;;;9.10;5.93;;;14.90;99.90;;;15.43;nan;100627.78;5031763;28;20632;-64
2022/11/01 05:30:42;;;;;;;15.03;7.50;;;15.00;99.90;;;15.47;nan;100613.38;5033826;28;20627;-64
2022/11/01 05:33:10;;;;;;;5.37;4.37;;;15.00;99.90;;;15.48;nan;100630.81;5032449;28;20640;-65
2022/11/01 05:35:37;;;;;;;8.90;4.63;;;15.00;99.90;;;15.32;nan;100632.31;5032679;28;20613;-64
2022/11/01 05:38:05;;;;;;;8.20;5.83;;;15.00;99.90;;;15.20;nan;100639.56;5032373;28;20604;-64
2022/11/01 05:40:32;;;;;;;9.60;4.73;;;14.90;99.90;;;15.15;nan;100649.66;5031282;28;20657;-63
2022/11/01 05:42:59;;;;;;;10.87;6.30;;;14.80;99.90;;;15.21;nan;100651.72;5033219;28;21139;-64
2022/11/01 05:45:26;;;;;;;13.27;5.20;;;14.80;99.90;;;15.17;nan;100647.69;5031431;28;20675;-66
2022/11/01 05:47:53;;;;;;;6.07;3.40;;;14.80;99.90;;;15.10;nan;100659.72;5033024;28;20652;-64
2022/11/01 05:50:20;;;;;;;9.37;5.97;;;14.80;99.90;;;15.18;nan;100665.13;5031249;28;21026;-64
2022/11/01 05:52:48;;;;;;;8.93;5.47;;;14.80;99.90;;;15.17;nan;100667.88;5033455;28;20669;-64
2022/11/01 05:55:15;;;;;;;10.63;5.77;;;14.80;99.90;;;15.12;nan;100654.34;5017524;28;21004;-64
2022/11/01 05:57:42;;;;;;;11.00;5.67;;;14.80;99.90;;;15.25;nan;100668.84;5033799;28;20869;-65
2022/11/01 06:00:10;;;;;;;12.80;5.40;;;14.80;99.90;;;15.19;nan;100672.03;5031380;28;20680;-64
2022/11/01 06:02:37;;;;;;;6.43;3.23;;;14.80;99.90;;;15.08;nan;100681.84;5031427;28;20629;-65
2022/11/01 06:05:05;;;;;;;9.33;6.13;;;14.80;99.90;;;15.20;nan;100684.25;5031228;28;21196;-64
2022/11/01 06:07:35;;;;;;;8.50;4.67;;;14.80;99.90;;;15.11;nan;100690.31;5032877;28;20648;-64
2022/11/01 06:10:03;;;;;;;7.40;4.50;;;14.80;99.90;;;15.17;nan;100684.50;5033269;28;20664;-64
2022/11/01 06:12:30;;;;;;;7.33;5.60;;;14.80;99.90;;;15.09;nan;100684.38;5051816;28;20666;-63
2022/11/01 06:14:57;;;;;;;10.20;6.17;;;14.80;99.90;;;15.14;nan;100694.47;5038960;28;20632;-64
2022/11/01 06:17:24;;;;;;;8.13;5.60;;;14.80;99.90;;;15.15;nan;100690.84;5031382;28;20694;-63
2022/11/01 06:19:51;;;;;;;5.40;3.00;;;14.80;99.90;;;15.08;nan;100701.09;5030790;28;20668;-65
2022/11/01 06:22:18;;;;;;;10.90;5.47;;;14.70;99.90;;;15.13;nan;100701.50;5032942;28;20655;-64
2022/11/01 06:24:45;;;;;;;10.40;5.60;;;14.80;99.90;;;15.05;nan;100704.00;5031335;28;20605;-65
2022/11/01 06:27:12;;;;;;;8.97;6.23;;;14.70;99.90;;;15.06;nan;100697.75;5031509;28;20676;-64
2022/11/01 06:29:39;;;;;;;14.23;5.83;;;14.70;99.90;;;14.99;nan;100707.16;5031791;28;20644;-64
2022/11/01 06:32:06;;;;;;;8.00;4.73;;;14.70;99.90;;;15.03;nan;100713.81;5045341;28;20638;-64
2022/11/01 06:34:33;;;;;;;7.20;4.33;;;14.70;99.90;;;15.15;nan;100715.34;5037293;28;20637;-63
2022/11/01 06:37:01;;;;;;;13.07;6.60;;;14.70;99.90;;;15.15;nan;100722.41;5027639;28;20593;-65
2022/11/01 06:39:27;;;;;;;8.80;6.10;;;14.80;99.90;;;15.17;nan;100718.66;5028120;28;21076;-67
2022/11/01 06:41:54;;;;;;;8.17;5.00;;;14.80;99.90;;;15.35;nan;100719.63;5032102;28;20643;-64
2022/11/01 06:44:21;;;;;;;9.80;5.40;;;14.80;99.90;;;15.36;nan;100721.28;5029811;28;20636;-65
2022/11/01 06:46:48;;;;;;;10.80;5.00;;;14.90;99.90;;;15.39;nan;100722.81;5033876;28;20656;-65
2022/11/01 06:49:15;;;;;;;7.93;5.50;;;14.90;99.90;;;15.43;nan;100718.97;5045009;28;20667;-64
2022/11/01 06:51:45;;;;;;;18.80;5.80;;;14.90;99.90;;;15.44;nan;100733.78;5024884;28;20621;-64
2022/11/01 06:54:12;;;;;;;9.87;4.87;;;14.90;99.90;;;15.47;nan;100725.63;5026776;28;20617;-63
2022/11/01 06:56:39;;;;;;;8.70;4.90;;;15.00;99.90;;;15.53;nan;100736.41;5050936;28;20621;-65
2022/11/01 06:59:07;;;;;;;8.97;5.13;;;15.00;99.90;;;15.53;nan;100732.94;5048726;28;20685;-66
2022/11/01 07:01:34;;;;;;;5.47;3.80;;;15.00;99.90;;;15.45;nan;100735.44;5022848;28;21028;-64
2022/11/01 07:04:01;;;;;;;7.57;5.40;;;15.10;99.90;;;15.32;nan;100740.94;5029491;28;21148;-64
2022/11/01 07:06:29;;;;;;;5.93;3.90;;;15.00;99.90;;;15.38;nan;100745.66;5029084;28;20656;-64
2022/11/01 07:08:58;;;;;;;3.43;2.97;;;15.00;99.90;;;15.41;nan;100753.28;5027987;28;20664;-65
2022/11/01 07:11:25;;;;;;;7.00;3.60;;;15.00;99.90;;;15.42;nan;100754.91;5029078;28;20636;-64
2022/11/01 07:13:58;;;;;;;5.10;3.50;;;15.00;99.90;;;15.34;nan;100765.31;5030028;28;21034;-65
2022/11/01 07:16:25;;;;;;;5.97;3.90;;;15.00;99.90;;;15.32;nan;100756.72;5030071;28;20653;-64
2022/11/01 07:18:52;;;;;;;7.07;3.77;;;15.00;99.90;;;15.44;nan;100754.81;5029619;28;20665;-64
2022/11/01 07:21:20;;;;;;;5.87;3.57;;;15.00;99.90;;;15.45;nan;100751.22;5027251;28;20646;-64
2022/11/01 07:23:47;;;;;;;12.03;5.20;;;15.00;99.90;;;15.61;nan;100766.47;5024454;28;20646;-64
2022/11/01 07:26:13;;;;;;;5.43;3.30;;;15.10;99.90;;;15.61;nan;100777.78;5037990;28;20612;-64
2022/11/01 07:28:40;;;;;;;11.70;4.57;;;15.10;99.90;;;15.54;nan;100767.00;5028738;28;20663;-66
2022/11/01 07:31:07;;;;;;;11.50;5.30;;;15.10;99.90;;;15.54;nan;100767.00;5029627;28;20617;-64
2022/11/01 07:33:34;;;;;;;5.90;3.43;;;15.10;99.90;;;15.60;nan;100776.13;5030748;28;21004;-64
2022/11/01 07:36:03;;;;;;;5.33;3.47;;;15.10;99.90;;;15.63;nan;100781.09;5029278;28;20629;-64
2022/11/01 07:38:30;;;;;;;6.00;4.07;;;15.20;99.90;;;15.63;nan;100775.84;5027734;28;20642;-65
2022/11/01 07:40:57;;;;;;;5.83;3.83;;;15.20;99.90;;;15.50;nan;100780.56;5025422;28;20609;-66
2022/11/01 07:43:24;;;;;;;4.27;3.37;;;15.20;99.90;;;15.78;nan;100786.81;5042691;28;20620;-64
2022/11/01 07:45:51;;;;;;;6.80;4.23;;;15.20;99.90;;;15.88;nan;100785.81;5027843;28;20704;-65
2022/11/01 07:48:19;;;;;;;5.80;3.40;;;15.30;99.90;;;15.84;nan;100789.72;5008123;28;20669;-66
2022/11/01 07:50:46;;;;;;;4.43;3.80;;;15.40;99.90;;;15.98;nan;100786.63;5036771;28;20613;-64
2022/11/01 07:53:17;;;;;;;10.93;3.40;;;15.40;99.90;;;15.98;nan;100785.78;5028062;28;20640;-65
2022/11/01 07:55:45;;;;;;;4.17;3.10;;;15.50;99.90;;;16.01;nan;100791.63;5026971;28;20767;-64
2022/11/01 07:58:13;;;;;;;3.50;3.20;;;15.50;99.90;;;16.10;nan;100787.28;5028900;28;20625;-64
2022/11/01 08:00:42;;;;;;;5.03;3.70;;;15.60;99.90;;;16.16;nan;100787.53;5030245;28;20613;-66
2022/11/01 08:03:13;;;;;;;3.50;2.60;;;15.60;99.90;;;16.21;nan;100776.59;5028452;28;20674;-64
2022/11/01 08:05:41;;;;;;;1.17;1.10;;;15.70;99.90;;;16.40;nan;100784.44;5029605;28;20625;-65
2022/11/01 08:08:09;;;;;;;6.57;3.00;;;15.80;99.90;;;16.32;nan;100789.59;5019025;28;20666;-64
2022/11/01 08:10:37;;;;;;;3.13;2.90;;;15.80;99.90;;;16.35;nan;100788.50;5026360;28;20661;-64
2022/11/01 08:13:33;;;;;;;4.30;3.03;;;15.90;99.90;;;16.53;nan;100790.25;5030433;28;20599;-64
2022/11/01 08:16:01;;;;;;;3.63;3.10;;;15.90;99.90;;;16.50;nan;100800.25;5024876;28;21055;-66
2022/11/01 08:18:28;;;;;;;4.00;3.40;;;16.00;99.90;;;16.76;nan;100803.91;5026173;28;20625;-64
2022/11/01 08:20:58;;;;;;;2.90;2.70;;;16.10;99.90;;;16.84;nan;100809.28;5027357;28;20636;-64
2022/11/01 08:23:25;;;;;;;5.70;2.43;;;16.10;99.90;;;16.85;nan;100818.81;5029402;28;20636;-63
2022/11/01 08:25:52;;;;;;;8.07;3.37;;;16.20;99.90;;;17.00;nan;100820.00;5027565;28;21174;-67
2022/11/01 08:28:20;;;;;;;4.53;3.37;;;16.30;99.90;;;16.95;nan;100824.91;5028129;28;20679;-66
2022/11/01 08:30:48;;;;;;;3.57;3.27;;;16.40;99.90;;;16.99;nan;100828.91;5030376;28;20612;-66
2022/11/01 08:33:15;;;;;;;3.33;3.00;;;16.40;99.90;;;17.16;nan;100828.09;5034697;28;21258;-68
2022/11/01 08:35:43;;;;;;;3.13;2.80;;;16.50;99.90;;;16.99;nan;100836.81;5029904;28;20625;-65
2022/11/01 08:38:15;;;;;;;6.07;2.93;;;16.50;99.90;;;16.85;nan;100840.75;5026996;28;21004;-66
2022/11/01 08:40:42;;;;;;;3.20;2.80;;;16.50;99.90;;;16.96;nan;100837.91;5029373;28;20595;-64
2022/11/01 08:43:09;;;;;;;3.90;3.17;;;16.40;99.90;;;16.91;nan;100850.69;5028565;28;20645;-64
2022/11/01 08:45:36;;;;;;;3.83;3.47;;;16.40;99.90;;;16.93;nan;100854.00;5029030;28;21169;-66
2022/11/01 08:48:04;;;;;;;4.07;3.67;;;16.40;99.90;;;16.97;nan;100849.31;5038719;28;20676;-64
2022/11/01 08:50:32;;;;;;;3.90;3.50;;;16.40;99.90;;;16.89;nan;100855.28;5030193;28;20653;-65
2022/11/01 08:53:05;;;;;;;3.60;3.13;;;16.40;99.90;;;17.01;nan;100864.66;5027096;28;21310;-60
2022/11/01 08:55:33;;;;;;;5.00;3.00;;;16.40;99.90;;;16.89;nan;100862.34;5025258;28;20624;-64
2022/11/01 08:58:04;;;;;;;9.80;3.50;;;16.40;99.90;;;16.77;nan;100866.16;5026497;28;20647;-64
2022/11/01 09:00:32;;;;;;;6.03;3.63;;;16.30;99.90;;;16.81;nan;100865.72;5027800;28;20651;-63
2022/11/01 09:02:59;;;;;;;5.20;3.53;;;16.30;99.90;;;16.77;nan;100868.78;5027838;28;20651;-65
2022/11/01 09:05:30;;;;;;;3.90;3.40;;;16.30;99.90;;;16.94;nan;100879.41;5029825;28;20607;-65
2022/11/01 09:07:58;;;;;;;3.93;3.53;;;16.30;99.90;;;17.02;nan;100876.88;5020406;28;20669;-65
2022/11/01 09:10:27;;;;;;;3.27;2.70;;;16.30;99.90;;;17.03;nan;100870.63;5035050;28;20685;-65
2022/11/01 09:12:54;;;;;;;3.10;2.80;;;16.40;99.90;;;17.11;nan;100871.69;5048921;28;20693;-64
2022/11/01 09:15:21;;;;;;;4.47;3.40;;;16.40;99.90;;;17.15;nan;100883.59;5036447;28;20670;-66
2022/11/01 09:17:48;;;;;;;4.63;4.13;;;16.50;99.90;;;17.16;nan;100898.47;5029961;28;20601;-64
2022/11/01 09:20:15;;;;;;;5.70;3.57;;;16.50;99.90;;;17.15;nan;100915.25;5033387;28;20871;-64
2022/11/01 09:22:42;;;;;;;3.80;3.13;;;16.50;99.90;;;17.08;nan;100909.72;5027284;28;20624;-64
2022/11/01 09:25:10;;;;;;;2.20;1.40;;;16.50;99.90;;;16.96;nan;100905.63;5028765;28;20643;-65
2022/11/01 09:27:37;;;;;;;1.40;1.23;;;16.40;99.90;;;16.68;nan;100914.44;5028835;28;20683;-64
2022/11/01 09:30:05;;;;;;;2.97;1.00;;;16.20;99.90;;;16.73;nan;100920.94;5028476;28;20653;-64
2022/11/01 09:32:32;;;;;;;2.13;0.90;;;16.20;99.90;;;16.62;nan;100917.63;5025710;28;20652;-64
2022/11/01 09:34:59;;;;;;;0.97;0.87;;;16.10;99.90;;;16.54;nan;100918.34;5029377;28;20604;-65
2022/11/01 09:37:26;;;;;;;0.67;0.63;;;16.00;99.90;;;16.55;nan;100911.25;5028134;28;20636;-63
2022/11/01 09:39:53;;;;;;;1.23;0.60;;;16.00;99.90;;;16.42;nan;100916.00;5032589;28;20720;-64
2022/11/01 09:42:31;;;;;;;1.10;1.00;;;15.90;99.90;;;16.44;nan;100929.84;5032343;28;20617;-65
2022/11/01 09:45:06;;;;;;;2.47;1.13;;;15.90;99.90;;;16.56;nan;100926.09;5012203;28;20593;-64
2022/11/01 09:47:35;;;;;;;0.70;0.70;;;15.90;99.90;;;17.17;nan;100927.31;5028213;28;20644;-63
2022/11/01 09:50:12;;;;;;;3.03;1.30;;;16.10;99.90;;;18.52;nan;100933.38;5031932;28;20640;-65
2022/11/01 09:52:40;;;;;;;0.90;0.90;;;16.80;99.90;;;19.65;nan;100942.78;5026632;28;20990;-66
2022/11/01 09:55:15;;;;;;;0.93;0.80;;;17.60;99.90;;;21.95;nan;100939.31;5035891;28;21043;-63
2022/11/01 09:58:05;;;;;;;3.03;0.93;;;19.00;99.90;;;23.07;nan;100940.16;5013203;28;20772;-65
2022/11/01 10:00:39;;;;;;;1.23;0.60;;;20.20;99.90;;;25.07;nan;100939.97;5047956;22;20689;-66
2022/11/01 10:03:35;;;;;;;1.27;0.60;;;21.60;99.90;;;26.95;nan;100944.31;5048486;28;20631;-65
2022/11/01 10:06:22;;;;;;;2.27;0.70;;;22.90;99.90;;;28.55;nan;100949.31;5067093;28;20635;-65
2022/11/01 10:09:07;;;;;;;1.63;0.70;;;24.60;97.40;;;29.23;nan;100949.31;5036092;28;20725;-64
2022/11/01 10:12:05;;;;;;;2.50;0.80;;;25.30;94.50;;;27.73;nan;100954.78;5012360;28;20644;-65
2022/11/01 10:15:17;;;;;;;5.80;0.70;;;25.20;91.70;;;27.40;nan;100956.81;5013447;28;20943;-64
2022/11/01 10:17:54;;;;;;;0.70;0.70;;;25.10;91.30;;;26.74;nan;100966.81;5013191;28;20640;-65
2022/11/01 10:20:29;;;;;;;0.50;0.40;;;24.70;90.80;;;25.55;nan;100958.72;5013394;28;20649;-64
2022/11/01 10:22:56;;;;;;;3.83;1.10;;;24.00;91.30;;;24.61;nan;100963.66;5023276;28;20632;-64
2022/11/01 10:25:28;;;;;;;0.60;0.60;;;23.40;91.80;;;23.62;nan;100960.13;5031153;28;20660;-64
2022/11/01 10:27:58;;;;;;;1.57;0.80;;;22.60;93.50;;;22.93;nan;100951.63;5028217;28;20729;-64
2022/11/01 10:30:27;;;;;;;4.23;0.87;;;21.90;94.30;;;22.49;nan;100949.88;5027682;28;21009;-64
2022/11/01 10:33:19;;;;;;;10.33;0.63;;;21.50;95.70;;;21.41;nan;100943.72;5011035;28;20679;-65
2022/11/01 10:35:56;;;;;;;1.70;0.60;;;21.00;96.60;;;21.17;nan;100943.78;5011519;28;20630;-64
2022/11/01 10:38:34;;;;;;;2.80;0.83;;;20.40;98.00;;;20.94;nan;100945.50;5010473;28;20673;-66
2022/11/01 10:41:40;;;;;;;0.60;0.60;;;20.10;99.70;;;20.53;nan;100947.38;5011348;28;21173;-65
2022/11/01 10:44:26;;;;;;;0.97;0.70;;;19.80;99.90;;;20.35;nan;100945.88;5020248;28;20640;-66
2022/11/01 10:46:55;;;;;;;4.83;0.70;;;19.50;99.90;;;19.82;nan;100941.00;5035692;28;20696;-65
2022/11/01 10:49:28;;;;;;;2.73;0.87;;;19.30;99.90;;;19.80;nan;100948.28;5030761;28;20661;-65
2022/11/01 10:52:16;;;;;;;2.50;0.90;;;19.10;99.90;;;19.63;nan;100944.75;5021139;28;20625;-64